Time;durP1;ratioP1;P1;durP2;ratioP2;P2;SDS_P1;SDS_P2;PMS_P1;PMS_P2;Temp;Humidity;BMP_temperature;BMP_pressure;BME280_temperature;BME280_humidity;BME280_pressure;Samples;Min_cycle;Max_cycle;Signal;HPM_P1;HPM_P2
2022/04/19 00:00:46;;;;;;;;;;;;;;;17.17;52.08;101292.56;1044622;28;678;-59
2022/04/19 00:01:36;;;;;;;;;;;;;;;17.18;51.86;101288.88;1044910;28;650;-59
2022/04/19 00:02:26;;;;;;;;;;;;;;;17.17;51.77;101295.25;1043889;28;624;-59
2022/04/19 00:03:17;;;;;;;;;;;;;;;17.17;52.03;101292.56;1044780;28;720;-59
2022/04/19 00:04:07;;;;;;;;;;;;;;;17.17;51.97;101291.72;1045860;28;597;-59
2022/04/19 00:04:59;;;;;;;;;;;;;;;17.15;51.89;101291.84;1045729;28;652;-59
2022/04/19 00:05:49;;;;;;;;;;;;;;;17.13;52.08;101295.66;1044289;28;666;-59
2022/04/19 00:06:40;;;;;;;;;;;;;;;17.14;52.35;101286.59;1044544;28;938;-59
2022/04/19 00:07:31;;;;;;;;;;;;;;;17.14;52.06;101289.28;1044265;28;693;-58
2022/04/19 00:08:21;;;;;;;;;;;;;;;17.13;52.06;101291.13;1044361;28;618;-58
2022/04/19 00:09:12;;;;;;;;;;;;;;;17.14;52.21;101302.75;1044478;28;674;-58
2022/04/19 00:10:02;;;;;;;;;;;;;;;17.13;52.31;101301.03;1044232;28;705;-58
2022/04/19 00:10:53;;;;;;;;;;;;;;;17.14;52.16;101298.22;1044797;28;717;-58
2022/04/19 00:11:43;;;;;;;;;;;;;;;17.14;51.88;101297.34;1045221;28;759;-58
2022/04/19 00:12:33;;;;;;;;;;;;;;;17.13;52.36;101301.03;1043913;28;670;-58
2022/04/19 00:13:24;;;;;;;;;;;;;;;17.13;52.22;101306.41;1045820;28;1663;-58
2022/04/19 00:14:15;;;;;;;;;;;;;;;17.15;51.97;101307.16;1048375;28;638;-58
2022/04/19 00:15:06;;;;;;;;;;;;;;;17.14;51.78;101300.03;1048660;28;642;-58
2022/04/19 00:15:56;;;;;;;;;;;;;;;17.12;52.28;101304.72;1048293;28;638;-58
2022/04/19 00:16:47;;;;;;;;;;;;;;;17.10;51.70;101299.44;1048101;28;1967;-58
2022/04/19 00:17:37;;;;;;;;;;;;;;;17.09;52.10;101302.28;1048310;28;725;-58
2022/04/19 00:18:28;;;;;;;;;;;;;;;17.09;52.01;101299.56;1048437;28;648;-58
2022/04/19 00:19:18;;;;;;;;;;;;;;;17.12;51.80;101302.88;1049012;28;665;-58
2022/04/19 00:20:09;;;;;;;;;;;;;;;17.10;51.55;101301.28;1048341;28;706;-58
2022/04/19 00:21:00;;;;;;;;;;;;;;;17.10;51.99;101301.28;1048972;28;693;-59
2022/04/19 00:21:50;;;;;;;;;;;;;;;17.09;52.34;101294.19;1048635;28;689;-58
2022/04/19 00:22:40;;;;;;;;;;;;;;;17.10;52.11;101299.44;1048467;28;591;-58
2022/04/19 00:23:31;;;;;;;;;;;;;;;17.09;51.96;101294.19;1048611;28;729;-58
2022/04/19 00:24:21;;;;;;;;;;;;;;;17.11;51.91;101297.63;1048288;28;649;-58
2022/04/19 00:25:12;;;;;;;;;;;;;;;17.09;51.76;101289.66;1048614;28;704;-58
2022/04/19 00:26:03;;;;;;;;;;;;;;;17.06;52.17;101295.31;1048364;28;642;-58
2022/04/19 00:26:55;;;;;;;;;;;;;;;17.04;51.88;101294.56;1048957;28;598;-58
2022/04/19 00:27:45;;;;;;;;;;;;;;;17.05;51.93;101292.75;1048409;28;638;-59
2022/04/19 00:28:36;;;;;;;;;;;;;;;17.03;52.34;101290.16;1048494;28;650;-58
2022/04/19 00:29:26;;;;;;;;;;;;;;;17.04;52.31;101285.63;1048419;28;682;-59
2022/04/19 00:30:17;;;;;;;;;;;;;;;17.04;52.09;101282.94;1044658;28;678;-58
2022/04/19 00:31:07;;;;;;;;;;;;;;;17.02;52.17;101282.25;1044098;28;670;-59
2022/04/19 00:31:58;;;;;;;;;;;;;;;17.01;51.98;101297.56;1049095;28;657;-59
2022/04/19 00:32:48;;;;;;;;;;;;;;;17.00;52.12;101291.31;1049525;28;680;-58
2022/04/19 00:33:44;;;;;;;;;;;;;;;16.98;52.09;101282.50;1048447;28;654;-58
2022/04/19 00:34:34;;;;;;;;;;;;;;;17.01;52.19;101284.09;1048329;28;670;-58
2022/04/19 00:35:26;;;;;;;;;;;;;;;17.02;51.56;101283.94;1045176;28;693;-58
2022/04/19 00:36:18;;;;;;;;;;;;;;;17.04;51.78;101294.56;1045198;28;693;-58
2022/04/19 00:37:08;;;;;;;;;;;;;;;17.02;51.84;101287.63;1049450;28;1973;-58
2022/04/19 00:37:59;;;;;;;;;;;;;;;17.00;51.92;101291.31;1048511;28;665;-58
2022/04/19 00:38:49;;;;;;;;;;;;;;;17.01;52.17;101286.78;1049552;28;748;-58
2022/04/19 00:39:40;;;;;;;;;;;;;;;17.01;51.32;101281.41;1048361;28;595;-58
2022/04/19 00:40:30;;;;;;;;;;;;;;;17.00;52.05;101285.06;1049221;28;649;-58
2022/04/19 00:41:20;;;;;;;;;;;;;;;16.98;52.07;101287.91;1048303;28;614;-58
2022/04/19 00:42:11;;;;;;;;;;;;;;;16.97;51.69;101286.19;1048481;28;701;-58
2022/04/19 00:43:01;;;;;;;;;;;;;;;16.97;52.18;101280.78;1044843;28;1742;-58
2022/04/19 00:43:52;;;;;;;;;;;;;;;16.96;52.30;101289.84;1044069;28;724;-58
2022/04/19 00:44:42;;;;;;;;;;;;;;;16.98;51.87;101281.66;1048827;28;693;-58
2022/04/19 00:45:34;;;;;;;;;;;;;;;16.96;52.04;101283.63;1048337;28;847;-57
2022/04/19 00:46:24;;;;;;;;;;;;;;;16.96;51.63;101284.47;1048509;28;649;-58
2022/04/19 00:47:15;;;;;;;;;;;;;;;16.95;52.48;101289.97;1048372;28;1141;-58
2022/04/19 00:48:07;;;;;;;;;;;;;;;16.95;51.95;101285.44;1049496;28;748;-58
2022/04/19 00:48:57;;;;;;;;;;;;;;;16.94;51.67;101283.75;1049047;28;684;-58
2022/04/19 00:49:47;;;;;;;;;;;;;;;16.95;51.90;101288.16;1052628;28;752;-58
2022/04/19 00:50:38;;;;;;;;;;;;;;;16.94;51.85;101280.19;1049609;28;1188;-58
2022/04/19 00:51:28;;;;;;;;;;;;;;;16.95;52.01;101287.28;1044244;28;646;-58
2022/04/19 00:52:19;;;;;;;;;;;;;;;16.95;51.92;101285.44;1044357;28;582;-58
2022/04/19 00:53:11;;;;;;;;;;;;;;;16.95;51.85;101287.28;1044505;28;709;-58
2022/04/19 00:54:01;;;;;;;;;;;;;;;16.93;52.02;101284.72;1044228;28;689;-58
2022/04/19 00:54:52;;;;;;;;;;;;;;;16.94;51.68;101285.59;1043883;28;650;-58
2022/04/19 00:55:42;;;;;;;;;;;;;;;16.91;52.20;101284.00;1044169;28;630;-59
2022/04/19 00:56:33;;;;;;;;;;;;;;;16.91;52.33;101285.84;1044292;28;678;-58
2022/04/19 00:57:23;;;;;;;;;;;;;;;16.91;52.09;101288.53;1044342;28;662;-58
2022/04/19 00:58:14;;;;;;;;;;;;;;;16.91;52.08;101285.84;1044205;28;644;-58
2022/04/19 00:59:04;;;;;;;;;;;;;;;16.92;51.94;101287.53;1043866;28;654;-58
2022/04/19 00:59:54;;;;;;;;;;;;;;;16.91;51.98;101285.84;1044081;28;693;-58
2022/04/19 01:00:45;;;;;;;;;;;;;;;16.89;51.92;101288.66;1044363;28;665;-58
2022/04/19 01:01:35;;;;;;;;;;;;;;;16.88;52.08;101281.56;1044082;28;662;-58
2022/04/19 01:02:26;;;;;;;;;;;;;;;16.87;52.11;101287.06;1044245;28;658;-58
2022/04/19 01:03:16;;;;;;;;;;;;;;;16.86;52.33;101286.22;1044315;28;685;-58
2022/04/19 01:04:06;;;;;;;;;;;;;;;16.85;51.98;101281.81;1043527;28;693;-58
2022/04/19 01:04:57;;;;;;;;;;;;;;;16.85;52.03;101287.19;1044313;28;763;-58
2022/04/19 01:05:47;;;;;;;;;;;;;;;16.85;52.20;101286.34;1044754;28;657;-58
2022/04/19 01:06:38;;;;;;;;;;;;;;;16.84;52.03;101285.47;1044500;28;698;-58
2022/04/19 01:07:28;;;;;;;;;;;;;;;16.84;52.00;101285.47;1044547;28;670;-57
2022/04/19 01:08:19;;;;;;;;;;;;;;;16.85;51.91;101284.50;1044787;28;631;-57
2022/04/19 01:09:09;;;;;;;;;;;;;;;16.84;52.06;101282.78;1044122;28;630;-58
2022/04/19 01:10:00;;;;;;;;;;;;;;;16.84;51.95;101284.66;1044326;28;662;-57
2022/04/19 01:13:17;;;;;;;;;;;;;;;16.83;51.77;101275.72;1043504;28;849;-57
2022/04/19 01:13:19;;;;;;;;;;;;;;;16.85;51.97;101287.19;1048303;28;678;-57
2022/04/19 01:14:09;;;;;;;;;;;;;;;16.85;51.57;101284.50;1048483;28;1037;-58
2022/04/19 01:15:00;;;;;;;;;;;;;;;16.83;51.69;101283.81;1048704;28;637;-57
2022/04/19 01:15:50;;;;;;;;;;;;;;;16.83;51.96;101281.13;1048965;28;621;-58
2022/04/19 01:16:41;;;;;;;;;;;;;;;16.83;51.77;101283.81;1048024;28;1452;-57
2022/04/19 01:17:32;;;;;;;;;;;;;;;16.83;51.71;101277.56;1048751;28;622;-58
2022/04/19 01:18:23;;;;;;;;;;;;;;;16.82;51.71;101279.41;1048176;28;638;-58
2022/04/19 01:19:16;;;;;;;;;;;;;;;16.81;51.95;101279.53;1044999;28;626;-58
2022/04/19 01:20:07;;;;;;;;;;;;;;;16.80;51.81;101278.69;1044563;28;654;-58
2022/04/19 01:20:58;;;;;;;;;;;;;;;16.79;52.14;101279.66;1049350;28;657;-58
2022/04/19 01:21:49;;;;;;;;;;;;;;;16.80;51.86;101273.28;1048802;28;642;-62
2022/04/19 01:22:39;;;;;;;;;;;;;;;16.79;51.91;101276.13;1048406;28;674;-58
2022/04/19 01:23:30;;;;;;;;;;;;;;;16.79;51.93;101270.72;1045485;28;638;-58
2022/04/19 01:24:20;;;;;;;;;;;;;;;16.78;52.13;101280.63;1044473;28;629;-58
2022/04/19 01:25:10;;;;;;;;;;;;;;;16.75;51.87;101275.50;1048175;28;1472;-57
2022/04/19 01:26:02;;;;;;;;;;;;;;;16.74;51.93;101271.09;1048256;28;1651;-58
2022/04/19 01:26:52;;;;;;;;;;;;;;;16.75;51.78;101271.97;1048694;28;1822;-56
2022/04/19 01:27:42;;;;;;;;;;;;;;;16.72;52.00;101275.75;1048208;28;631;-58
2022/04/19 01:28:33;;;;;;;;;;;;;;;16.72;51.80;101274.91;1048410;28;626;-58
2022/04/19 01:29:23;;;;;;;;;;;;;;;16.73;52.18;101277.47;1047712;28;709;-58
2022/04/19 01:30:14;;;;;;;;;;;;;;;16.75;51.72;101278.19;1048275;28;630;-58
2022/04/19 01:31:05;;;;;;;;;;;;;;;16.75;51.72;101274.66;1048354;28;646;-58
2022/04/19 01:31:55;;;;;;;;;;;;;;;16.73;51.78;101272.09;1048877;28;653;-58
2022/04/19 01:32:45;;;;;;;;;;;;;;;16.73;51.79;101282.00;1048810;28;670;-58
2022/04/19 01:33:36;;;;;;;;;;;;;;;16.74;51.86;101283.72;1048390;28;681;-58
2022/04/19 01:34:27;;;;;;;;;;;;;;;16.75;51.55;101271.97;1048114;28;674;-58
2022/04/19 01:35:17;;;;;;;;;;;;;;;16.72;51.86;101270.38;1048400;28;646;-58
2022/04/19 01:36:08;;;;;;;;;;;;;;;16.72;51.76;101275.75;1048772;28;692;-59
2022/04/19 01:36:59;;;;;;;;;;;;;;;16.70;51.77;101279.56;1048752;28;1914;-58
2022/04/19 01:37:49;;;;;;;;;;;;;;;16.72;52.06;101282.97;1049343;28;728;-58
2022/04/19 01:38:39;;;;;;;;;;;;;;;16.69;51.66;101270.63;1048212;28;685;-58
2022/04/19 01:40:39;;;;;;;;;;;;;;;16.67;51.70;101272.59;1048898;28;645;-58
2022/04/19 01:41:30;;;;;;;;;;;;;;;16.68;51.79;101274.31;1044495;28;1664;-58
2022/04/19 01:42:20;;;;;;;;;;;;;;;16.67;51.75;101275.28;1044506;28;642;-58
2022/04/19 01:43:10;;;;;;;;;;;;;;;16.67;51.87;101280.66;1044331;28;681;-58
2022/04/19 01:44:01;;;;;;;;;;;;;;;16.66;51.79;101276.25;1045690;28;697;-58
2022/04/19 01:44:51;;;;;;;;;;;;;;;16.67;51.76;101283.34;1049443;28;756;-58
2022/04/19 01:45:42;;;;;;;;;;;;;;;16.67;51.81;101280.66;1048129;28;673;-59
2022/04/19 01:46:32;;;;;;;;;;;;;;;16.67;51.70;101272.59;1048285;28;654;-58
2022/04/19 01:47:23;;;;;;;;;;;;;;;16.67;51.77;101272.59;1048566;28;626;-57
2022/04/19 01:48:13;;;;;;;;;;;;;;;16.65;51.77;101270.06;1048896;28;653;-59
2022/04/19 01:49:03;;;;;;;;;;;;;;;16.66;51.85;101276.25;1048140;28;716;-57
2022/04/19 01:49:54;;;;;;;;;;;;;;;16.64;51.78;101272.88;1048229;28;732;-59
2022/04/19 01:50:45;;;;;;;;;;;;;;;16.66;51.87;101273.56;1045836;28;1235;-59
2022/04/19 01:51:36;;;;;;;;;;;;;;;16.63;51.59;101273.84;1044174;28;705;-59
2022/04/19 01:52:26;;;;;;;;;;;;;;;16.64;51.67;101279.13;1043337;28;666;-59
2022/04/19 01:53:17;;;;;;;;;;;;;;;16.62;51.85;101274.81;1043488;28;628;-59
2022/04/19 01:54:07;;;;;;;;;;;;;;;16.63;51.89;101276.53;1044119;28;718;-58
2022/04/19 01:54:57;;;;;;;;;;;;;;;16.62;51.79;101277.50;1043912;28;638;-57
2022/04/19 01:55:48;;;;;;;;;;;;;;;16.59;51.91;101273.22;1044407;28;987;-59
2022/04/19 01:56:38;;;;;;;;;;;;;;;16.59;52.07;101273.22;1044955;28;661;-57
2022/04/19 01:57:29;;;;;;;;;;;;;;;16.57;51.84;101272.50;1044804;28;631;-57
2022/04/19 01:58:19;;;;;;;;;;;;;;;16.59;52.02;101269.69;1043726;28;658;-57
2022/04/19 01:59:09;;;;;;;;;;;;;;;16.58;51.91;101270.66;1044297;28;710;-57
2022/04/19 02:00:00;;;;;;;;;;;;;;;16.59;51.88;101266.97;1044369;28;795;-59
2022/04/19 02:00:50;;;;;;;;;;;;;;;16.58;51.85;101263.44;1040027;28;1550;-58
2022/04/19 02:01:41;;;;;;;;;;;;;;;16.59;51.91;101265.16;1040907;28;725;-57
2022/04/19 02:02:32;;;;;;;;;;;;;;;16.58;51.95;101276.03;1045493;28;642;-58
2022/04/19 02:03:22;;;;;;;;;;;;;;;16.57;51.82;101266.25;1044497;28;670;-58
2022/04/19 02:04:12;;;;;;;;;;;;;;;16.55;52.26;101271.75;1043928;28;678;-58
2022/04/19 02:05:03;;;;;;;;;;;;;;;16.57;51.69;101267.09;1044282;28;670;-57
2022/04/19 02:05:53;;;;;;;;;;;;;;;16.55;51.69;101266.38;1043778;28;651;-58
2022/04/19 02:06:44;;;;;;;;;;;;;;;16.56;51.98;101261.84;1043445;28;630;-57
2022/04/19 02:07:34;;;;;;;;;;;;;;;16.58;51.94;101267.97;1043656;28;678;-58
2022/04/19 02:08:24;;;;;;;;;;;;;;;16.57;51.94;101263.56;1044015;28;650;-57
2022/04/19 02:09:15;;;;;;;;;;;;;;;16.55;51.53;101262.84;1044119;28;713;-58
2022/04/19 02:10:06;;;;;;;;;;;;;;;16.54;51.91;101271.88;1043288;28;721;-57
2022/04/19 02:10:56;;;;;;;;;;;;;;;16.55;51.64;101274.44;1044464;28;1719;-57
2022/04/19 02:11:46;;;;;;;;;;;;;;;16.57;51.77;101277.00;1048747;28;692;-58
2022/04/19 02:12:38;;;;;;;;;;;;;;;16.54;51.92;101266.50;1047738;28;663;-57
2022/04/19 02:13:28;;;;;;;;;;;;;;;16.55;52.00;101268.22;1048805;28;637;-57
2022/04/19 02:14:20;;;;;;;;;;;;;;;16.53;51.73;101270.19;1048225;28;713;-57
2022/04/19 02:15:11;;;;;;;;;;;;;;;16.54;51.95;101267.34;1048272;28;649;-57
2022/04/19 02:16:01;;;;;;;;;;;;;;;16.54;51.97;101264.66;1048356;28;686;-57
2022/04/19 02:16:53;;;;;;;;;;;;;;;16.56;51.70;101269.94;1044783;28;1989;-57
2022/04/19 02:17:44;;;;;;;;;;;;;;;16.56;51.71;101270.78;1044851;28;697;-57
2022/04/19 02:18:34;;;;;;;;;;;;;;;16.55;51.58;101276.28;1049358;28;697;-57
2022/04/19 02:19:25;;;;;;;;;;;;;;;16.56;51.73;101272.63;1048176;28;638;-57
2022/04/19 02:20:16;;;;;;;;;;;;;;;16.55;51.62;101270.91;1048270;28;775;-57
2022/04/19 02:21:06;;;;;;;;;;;;;;;16.53;51.56;101273.72;1048621;28;603;-57
2022/04/19 02:21:57;;;;;;;;;;;;;;;16.53;51.87;101276.41;1048700;28;696;-57
2022/04/19 02:22:47;;;;;;;;;;;;;;;16.52;51.84;101266.63;1048334;28;702;-57
2022/04/19 02:23:38;;;;;;;;;;;;;;;16.51;51.91;101267.59;1048423;28;689;-57
2022/04/19 02:24:28;;;;;;;;;;;;;;;16.50;51.94;101268.59;1049077;28;654;-57
2022/04/19 02:25:18;;;;;;;;;;;;;;;16.49;51.73;101274.94;1048738;28;642;-57
2022/04/19 02:26:09;;;;;;;;;;;;;;;16.49;51.79;101268.72;1048256;28;649;-57
2022/04/19 02:26:59;;;;;;;;;;;;;;;16.49;51.91;101266.88;1047996;28;756;-58
2022/04/19 02:27:50;;;;;;;;;;;;;;;16.51;51.81;101277.50;1048195;28;623;-57
2022/04/19 02:28:40;;;;;;;;;;;;;;;16.48;51.95;101273.25;1048303;28;713;-58
2022/04/19 02:29:31;;;;;;;;;;;;;;;16.48;52.15;101267.84;1048060;28;638;-57
2022/04/19 02:30:21;;;;;;;;;;;;;;;16.47;51.87;101265.31;1048233;28;650;-57
2022/04/19 02:31:11;;;;;;;;;;;;;;;16.47;52.02;101271.56;1048046;28;643;-58
2022/04/19 02:32:02;;;;;;;;;;;;;;;16.47;51.97;101270.69;1048060;28;689;-57
2022/04/19 02:32:53;;;;;;;;;;;;;;;16.48;52.14;101261.66;1048017;28;614;-57
2022/04/19 02:33:43;;;;;;;;;;;;;;;16.46;52.04;101259.09;1048183;28;662;-58
2022/04/19 02:34:33;;;;;;;;;;;;;;;16.48;51.69;101262.47;1048074;28;596;-58
2022/04/19 02:35:26;;;;;;;;;;;;;;;16.47;52.19;101259.94;1048240;28;692;-58
2022/04/19 02:36:17;;;;;;;;;;;;;;;16.49;51.70;101263.31;1048295;28;642;-57
2022/04/19 02:37:08;;;;;;;;;;;;;;;16.49;51.92;101263.31;1048014;28;1989;-57
2022/04/19 02:37:58;;;;;;;;;;;;;;;16.48;51.98;101256.28;1048213;28;658;-56
2022/04/19 02:38:49;;;;;;;;;;;;;;;16.48;51.89;101262.47;1048067;28;610;-57
2022/04/19 02:39:39;;;;;;;;;;;;;;;16.46;51.91;101260.91;1048250;28;693;-57
2022/04/19 02:40:29;;;;;;;;;;;;;;;16.43;51.94;101255.78;1048371;28;638;-56
2022/04/19 02:41:20;;;;;;;;;;;;;;;16.45;51.83;101261.91;1045276;28;1754;-56
2022/04/19 02:42:10;;;;;;;;;;;;;;;16.44;52.07;101252.97;1048381;28;700;-56
2022/04/19 02:43:01;;;;;;;;;;;;;;;16.45;51.71;101256.53;1048092;28;681;-56
2022/04/19 02:43:51;;;;;;;;;;;;;;;16.43;51.80;101255.78;1048634;28;713;-56
2022/04/19 02:44:42;;;;;;;;;;;;;;;16.42;52.00;101257.63;1048713;28;642;-57
2022/04/19 02:45:32;;;;;;;;;;;;;;;16.43;51.80;101258.47;1044883;28;711;-57
2022/04/19 02:46:22;;;;;;;;;;;;;;;16.45;52.10;101256.53;1043516;28;653;-56
2022/04/19 02:47:15;;;;;;;;;;;;;;;16.44;52.03;101255.66;1044229;28;751;-56
2022/04/19 02:48:05;;;;;;;;;;;;;;;16.43;51.60;101253.09;1044106;28;721;-57
2022/04/19 02:48:57;;;;;;;;;;;;;;;16.44;52.37;101252.13;1047612;28;598;-56
2022/04/19 02:49:49;;;;;;;;;;;;;;;16.42;51.73;101252.25;1048495;28;1650;-56
2022/04/19 02:50:39;;;;;;;;;;;;;;;16.43;51.57;101253.09;1048544;28;1231;-56
2022/04/19 02:51:30;;;;;;;;;;;;;;;16.42;51.84;101251.38;1048176;28;654;-56
2022/04/19 02:52:20;;;;;;;;;;;;;;;16.41;51.93;101255.91;1047913;28;582;-57
2022/04/19 02:53:11;;;;;;;;;;;;;;;16.42;51.71;101251.38;1048154;28;622;-56
2022/04/19 02:54:01;;;;;;;;;;;;;;;16.40;51.87;101254.22;1048957;28;650;-55
2022/04/19 02:54:51;;;;;;;;;;;;;;;16.41;51.93;101255.91;1048725;28;614;-57
2022/04/19 02:55:42;;;;;;;;;;;;;;;16.40;51.79;101250.66;1048908;28;736;-57
2022/04/19 02:56:32;;;;;;;;;;;;;;;16.40;51.58;101254.22;1048869;28;709;-57
2022/04/19 02:57:23;;;;;;;;;;;;;;;16.39;51.87;101248.94;1048839;28;637;-56
2022/04/19 02:58:13;;;;;;;;;;;;;;;16.38;52.09;101255.31;1049042;28;709;-56
2022/04/19 02:59:04;;;;;;;;;;;;;;;16.36;51.67;101251.88;1048774;28;650;-59
2022/04/19 02:59:54;;;;;;;;;;;;;;;16.35;51.67;101244.78;1048799;28;767;-57
2022/04/19 03:00:44;;;;;;;;;;;;;;;16.34;51.75;101246.63;1048566;28;713;-56
2022/04/19 03:01:35;;;;;;;;;;;;;;;16.33;51.92;101248.47;1048785;28;649;-57
2022/04/19 03:02:25;;;;;;;;;;;;;;;16.35;51.84;101247.47;1045497;28;737;-56
2022/04/19 03:03:16;;;;;;;;;;;;;;;16.35;51.82;101244.78;1045510;28;708;-57
2022/04/19 03:04:06;;;;;;;;;;;;;;;16.32;51.67;101248.59;1049490;28;681;-56
2022/04/19 03:04:56;;;;;;;;;;;;;;;16.31;52.11;101244.19;1048844;28;654;-58
2022/04/19 03:05:48;;;;;;;;;;;;;;;16.31;51.87;101250.44;1048858;28;748;-57
2022/04/19 03:06:38;;;;;;;;;;;;;;;16.30;51.80;101242.50;1048874;28;682;-57
2022/04/19 03:07:28;;;;;;;;;;;;;;;16.29;51.75;101241.66;1048898;28;877;-57
2022/04/19 03:08:19;;;;;;;;;;;;;;;16.31;52.05;101250.44;1048898;28;669;-58
2022/04/19 03:09:09;;;;;;;;;;;;;;;16.30;51.73;101240.66;1049000;28;661;-57
2022/04/19 03:10:00;;;;;;;;;;;;;;;16.32;51.93;101240.53;1049113;28;631;-58
2022/04/19 03:10:50;;;;;;;;;;;;;;;16.35;51.75;101245.66;1049043;28;678;-60
2022/04/19 03:11:41;;;;;;;;;;;;;;;16.32;51.71;101246.75;1049309;28;1501;-57
2022/04/19 03:12:31;;;;;;;;;;;;;;;16.30;51.78;101247.88;1049588;28;760;-58
2022/04/19 03:13:21;;;;;;;;;;;;;;;16.28;51.96;101239.09;1049016;28;1761;-58
2022/04/19 03:14:12;;;;;;;;;;;;;;;16.29;51.73;101238.13;1052676;28;677;-58
2022/04/19 03:15:03;;;;;;;;;;;;;;;16.29;51.64;101236.28;1053408;28;744;-58
2022/04/19 03:15:53;;;;;;;;;;;;;;;16.28;51.67;101239.94;1048977;28;684;-58
2022/04/19 03:16:43;;;;;;;;;;;;;;;16.26;52.17;101235.66;1046456;28;670;-58
2022/04/19 03:17:34;;;;;;;;;;;;;;;16.25;51.66;101240.19;1045319;28;681;-58
2022/04/19 03:18:25;;;;;;;;;;;;;;;16.25;51.85;101237.50;1045693;28;708;-58
2022/04/19 03:19:16;;;;;;;;;;;;;;;16.26;51.66;101247.28;1046051;28;673;-58
2022/04/19 03:20:11;;;;;;;;;;;;;;;16.25;51.78;101237.50;1045427;28;614;-59
2022/04/19 03:21:02;;;;;;;;;;;;;;;16.24;51.75;101234.94;1046169;28;744;-57
2022/04/19 03:21:52;;;;;;;;;;;;;;;16.25;51.61;101244.72;1045296;28;657;-58
2022/04/19 03:28:29;;;;;;;;;;;;;;;16.22;51.97;101248.50;1044764;28;646;-58
2022/04/19 03:29:20;;;;;;;;;;;;;;;16.21;51.87;101246.81;1045176;28;645;-57
2022/04/19 03:30:14;;;;;;;;;;;;;;;16.20;51.91;101241.53;1045140;28;659;-58
2022/04/19 03:31:04;;;;;;;;;;;;;;;16.20;51.80;101247.78;1045204;28;611;-58
2022/04/19 03:31:55;;;;;;;;;;;;;;;16.22;51.78;101242.28;1045010;28;654;-58
2022/04/19 03:32:47;;;;;;;;;;;;;;;16.19;52.04;101246.06;1045305;28;653;-58
2022/04/19 03:33:38;;;;;;;;;;;;;;;16.19;52.08;101248.75;1045059;28;709;-58
2022/04/19 03:34:29;;;;;;;;;;;;;;;16.18;51.68;101244.34;1045430;28;644;-57
2022/04/19 03:35:19;;;;;;;;;;;;;;;16.18;51.70;101243.50;1045393;28;721;-58
2022/04/19 03:36:10;;;;;;;;;;;;;;;16.17;51.90;101245.34;1044170;28;712;-57
2022/04/19 03:37:00;;;;;;;;;;;;;;;16.17;52.12;101239.09;1045290;28;1972;-58
2022/04/19 03:37:51;;;;;;;;;;;;;;;16.18;52.12;101240.81;1045657;28;678;-58
2022/04/19 03:38:43;;;;;;;;;;;;;;;16.15;51.78;101244.59;1045199;28;681;-57
2022/04/19 03:39:33;;;;;;;;;;;;;;;16.18;51.94;101243.50;1045074;28;806;-58
2022/04/19 03:40:25;;;;;;;;;;;;;;;16.19;51.72;101245.22;1045155;28;610;-58
2022/04/19 03:41:15;;;;;;;;;;;;;;;16.18;51.76;101247.03;1045185;28;637;-58
2022/04/19 03:42:08;;;;;;;;;;;;;;;16.14;51.84;101247.41;1044334;28;694;-58
2022/04/19 03:42:58;;;;;;;;;;;;;;;16.12;52.02;101244.84;1047413;28;1746;-57
2022/04/19 03:43:49;;;;;;;;;;;;;;;16.11;51.92;101240.47;1048644;28;585;-58
2022/04/19 03:44:39;;;;;;;;;;;;;;;16.13;51.84;101248.38;1049271;28;673;-58
2022/04/19 03:45:29;;;;;;;;;;;;;;;16.11;51.56;101250.38;1049166;28;662;-58
2022/04/19 03:46:20;;;;;;;;;;;;;;;16.10;52.10;101240.59;1045897;28;638;-57
2022/04/19 03:47:10;;;;;;;;;;;;;;;16.13;51.92;101246.56;1044845;28;647;-58
2022/04/19 03:48:01;;;;;;;;;;;;;;;16.13;51.75;101246.56;1049051;28;638;-58
2022/04/19 03:48:51;;;;;;;;;;;;;;;16.13;51.71;101246.56;1049280;28;678;-58
2022/04/19 03:49:42;;;;;;;;;;;;;;;16.11;51.89;101247.69;1048553;28;701;-58
2022/04/19 03:50:32;;;;;;;;;;;;;;;16.08;51.80;101243.41;1048712;28;1203;-57
2022/04/19 03:51:23;;;;;;;;;;;;;;;16.10;51.91;101248.66;1044432;28;654;-57
2022/04/19 03:52:13;;;;;;;;;;;;;;;16.08;51.83;101246.09;1044886;28;633;-58
2022/04/19 03:53:03;;;;;;;;;;;;;;;16.09;51.62;101247.81;1045239;28;662;-57
2022/04/19 03:53:54;;;;;;;;;;;;;;;16.08;51.63;101239.88;1044984;28;697;-57
2022/04/19 03:54:44;;;;;;;;;;;;;;;16.07;52.07;101241.69;1044061;28;651;-57
2022/04/19 03:55:35;;;;;;;;;;;;;;;16.07;52.13;101240.84;1044379;28;706;-57
2022/04/19 03:56:26;;;;;;;;;;;;;;;16.05;51.91;101248.19;1043822;28;862;-58
2022/04/19 03:57:17;;;;;;;;;;;;;;;16.02;51.72;101249.28;1044898;28;1965;-58
2022/04/19 03:58:08;;;;;;;;;;;;;;;16.03;51.67;101237.53;1044412;28;658;-58
2022/04/19 03:58:58;;;;;;;;;;;;;;;16.04;51.58;101239.25;1044555;28;705;-57
2022/04/19 03:59:49;;;;;;;;;;;;;;;16.06;51.69;101240.00;1044431;28;677;-58
2022/04/19 04:00:39;;;;;;;;;;;;;;;16.04;51.92;101236.56;1044019;28;729;-57
2022/04/19 04:01:29;;;;;;;;;;;;;;;16.03;52.04;101239.38;1044388;28;682;-58
2022/04/19 04:02:20;;;;;;;;;;;;;;;16.03;52.09;101245.63;1043837;28;634;-58
2022/04/19 04:03:10;;;;;;;;;;;;;;;16.03;51.87;101240.22;1044015;28;630;-57
2022/04/19 04:04:01;;;;;;;;;;;;;;;16.05;51.92;101248.19;1044653;28;701;-58
2022/04/19 04:04:52;;;;;;;;;;;;;;;16.02;51.87;101241.22;1044638;28;685;-58
2022/04/19 04:05:42;;;;;;;;;;;;;;;16.00;51.85;101237.78;1044471;28;643;-58
2022/04/19 04:06:32;;;;;;;;;;;;;;;16.00;51.91;101245.00;1044981;28;653;-58
2022/04/19 04:07:23;;;;;;;;;;;;;;;15.99;51.80;101244.16;1044346;28;618;-58
2022/04/19 04:08:13;;;;;;;;;;;;;;;16.01;52.00;101241.34;1044027;28;705;-58
2022/04/19 04:09:04;;;;;;;;;;;;;;;16.00;51.99;101245.84;1043905;28;636;-58
2022/04/19 04:09:54;;;;;;;;;;;;;;;16.01;51.74;101239.50;1044627;28;642;-57
2022/04/19 04:10:44;;;;;;;;;;;;;;;16.00;51.95;101240.47;1044329;28;694;-58
2022/04/19 04:11:35;;;;;;;;;;;;;;;15.99;52.03;101244.16;1044377;28;638;-58
2022/04/19 04:12:25;;;;;;;;;;;;;;;16.02;51.87;101243.03;1045064;28;662;-56
2022/04/19 04:13:16;;;;;;;;;;;;;;;16.01;51.79;101247.56;1044366;28;640;-57
2022/04/19 04:14:06;;;;;;;;;;;;;;;15.98;51.88;101239.75;1045279;28;732;-57
2022/04/19 04:14:57;;;;;;;;;;;;;;;15.99;51.74;101249.53;1045260;28;626;-58
2022/04/19 04:15:47;;;;;;;;;;;;;;;15.98;51.91;101242.44;1044973;28;740;-58
2022/04/19 04:16:38;;;;;;;;;;;;;;;15.95;51.61;101243.53;1045195;28;795;-58
2022/04/19 04:17:28;;;;;;;;;;;;;;;15.96;51.76;101247.06;1045163;28;704;-58
2022/04/19 04:18:18;;;;;;;;;;;;;;;15.95;51.97;101245.38;1045742;28;736;-58
2022/04/19 04:19:09;;;;;;;;;;;;;;;15.93;51.96;101245.53;1044377;28;705;-58
2022/04/19 04:19:59;;;;;;;;;;;;;;;15.92;52.15;101248.34;1045017;28;705;-57
2022/04/19 04:20:50;;;;;;;;;;;;;;;15.92;51.72;101242.94;1044980;28;658;-58
2022/04/19 04:21:40;;;;;;;;;;;;;;;15.93;51.91;101250.91;1045063;28;579;-58
2022/04/19 04:22:30;;;;;;;;;;;;;;;15.93;52.19;101239.28;1044850;28;649;-58
2022/04/19 04:23:21;;;;;;;;;;;;;;;15.93;52.00;101244.66;1044460;28;630;-58
2022/04/19 04:24:11;;;;;;;;;;;;;;;15.94;52.30;101239.13;1044902;28;658;-58
2022/04/19 04:25:02;;;;;;;;;;;;;;;15.94;52.06;101241.00;1044886;28;705;-58
2022/04/19 04:25:53;;;;;;;;;;;;;;;15.94;51.56;101246.38;1046828;28;642;-59
2022/04/19 04:26:43;;;;;;;;;;;;;;;15.91;51.91;101246.63;1049593;28;740;-58
2022/04/19 04:27:34;;;;;;;;;;;;;;;15.92;52.14;101245.63;1045650;28;634;-59
2022/04/19 04:28:24;;;;;;;;;;;;;;;15.90;51.88;101245.75;1045117;28;672;-58
2022/04/19 04:29:14;;;;;;;;;;;;;;;15.91;51.91;101252.00;1045116;28;744;-60
2022/04/19 04:30:06;;;;;;;;;;;;;;;15.91;51.85;101250.16;1045059;28;653;-60
2022/04/19 04:30:56;;;;;;;;;;;;;;;15.89;52.04;101252.13;1045085;28;670;-58
2022/04/19 04:31:46;;;;;;;;;;;;;;;15.90;52.01;101252.97;1044571;28;661;-58
2022/04/19 04:32:37;;;;;;;;;;;;;;;15.90;51.82;101252.97;1045136;28;653;-58
2022/04/19 04:33:27;;;;;;;;;;;;;;;15.89;52.07;101248.56;1044856;28;689;-58
2022/04/19 04:34:18;;;;;;;;;;;;;;;15.87;51.63;101251.38;1044811;28;638;-57
2022/04/19 04:35:08;;;;;;;;;;;;;;;15.86;51.64;101246.13;1044924;28;698;-58